sensor_id;sensor_type;location;lat;lon;timestamp;P1;durP1;ratioP1;P2;durP2;ratioP2
12348;SDS011;5974;42.710;27.258;2023-03-12T00:00:35;2.50;;;1.53;;
12348;SDS011;5974;42.710;27.258;2023-03-12T00:03:03;3.73;;;1.23;;
12348;SDS011;5974;42.710;27.258;2023-03-12T00:05:30;1.90;;;1.10;;
12348;SDS011;5974;42.710;27.258;2023-03-12T00:07:57;3.87;;;1.00;;
12348;SDS011;5974;42.710;27.258;2023-03-12T00:10:25;4.17;;;1.20;;
12348;SDS011;5974;42.710;27.258;2023-03-12T00:12:52;4.33;;;1.30;;
12348;SDS011;5974;42.710;27.258;2023-03-12T00:15:20;7.13;;;1.40;;
12348;SDS011;5974;42.710;27.258;2023-03-12T00:17:47;2.70;;;1.00;;
12348;SDS011;5974;42.710;27.258;2023-03-12T00:20:14;3.20;;;0.80;;
12348;SDS011;5974;42.710;27.258;2023-03-12T00:22:41;5.50;;;1.00;;
12348;SDS011;5974;42.710;27.258;2023-03-12T00:25:10;4.90;;;1.13;;
12348;SDS011;5974;42.710;27.258;2023-03-12T00:27:40;5.00;;;1.20;;
12348;SDS011;5974;42.710;27.258;2023-03-12T00:30:08;4.63;;;1.10;;
12348;SDS011;5974;42.710;27.258;2023-03-12T00:32:36;6.17;;;1.30;;
12348;SDS011;5974;42.710;27.258;2023-03-12T00:35:04;3.53;;;1.60;;
12348;SDS011;5974;42.710;27.258;2023-03-12T00:37:32;7.53;;;1.30;;
12348;SDS011;5974;42.710;27.258;2023-03-12T00:39:59;7.40;;;1.50;;
12348;SDS011;5974;42.710;27.258;2023-03-12T00:42:26;1.13;;;0.90;;
12348;SDS011;5974;42.710;27.258;2023-03-12T00:44:54;3.30;;;1.10;;
12348;SDS011;5974;42.710;27.258;2023-03-12T00:47:21;4.20;;;0.93;;
12348;SDS011;5974;42.710;27.258;2023-03-12T00:49:48;6.60;;;1.50;;
12348;SDS011;5974;42.710;27.258;2023-03-12T00:52:15;5.03;;;2.10;;
12348;SDS011;5974;42.710;27.258;2023-03-12T00:54:42;2.00;;;1.20;;
12348;SDS011;5974;42.710;27.258;2023-03-12T00:57:09;10.23;;;1.50;;
12348;SDS011;5974;42.710;27.258;2023-03-12T00:59:36;6.43;;;1.10;;
12348;SDS011;5974;42.710;27.258;2023-03-12T01:02:05;2.33;;;1.30;;
12348;SDS011;5974;42.710;27.258;2023-03-12T01:04:33;5.07;;;1.10;;
12348;SDS011;5974;42.710;27.258;2023-03-12T01:07:00;2.87;;;1.30;;
12348;SDS011;5974;42.710;27.258;2023-03-12T01:09:26;14.97;;;1.97;;
12348;SDS011;5974;42.710;27.258;2023-03-12T01:11:53;5.07;;;1.47;;
12348;SDS011;5974;42.710;27.258;2023-03-12T01:14:20;7.43;;;1.37;;
12348;SDS011;5974;42.710;27.258;2023-03-12T01:16:48;9.10;;;1.47;;
12348;SDS011;5974;42.710;27.258;2023-03-12T01:19:16;7.47;;;1.50;;
12348;SDS011;5974;42.710;27.258;2023-03-12T01:21:43;2.77;;;1.40;;
12348;SDS011;5974;42.710;27.258;2023-03-12T01:24:10;7.63;;;1.53;;
12348;SDS011;5974;42.710;27.258;2023-03-12T01:26:37;10.80;;;1.40;;
12348;SDS011;5974;42.710;27.258;2023-03-12T01:29:04;4.90;;;1.60;;
12348;SDS011;5974;42.710;27.258;2023-03-12T01:31:31;7.17;;;1.50;;
12348;SDS011;5974;42.710;27.258;2023-03-12T01:33:58;6.77;;;1.50;;
12348;SDS011;5974;42.710;27.258;2023-03-12T01:36:26;7.80;;;1.73;;
12348;SDS011;5974;42.710;27.258;2023-03-12T01:38:55;3.57;;;1.53;;
12348;SDS011;5974;42.710;27.258;2023-03-12T01:41:24;6.43;;;1.97;;
12348;SDS011;5974;42.710;27.258;2023-03-12T01:43:52;7.23;;;2.07;;
12348;SDS011;5974;42.710;27.258;2023-03-12T01:46:23;12.83;;;1.80;;
12348;SDS011;5974;42.710;27.258;2023-03-12T01:48:54;7.50;;;1.40;;
12348;SDS011;5974;42.710;27.258;2023-03-12T01:51:26;4.07;;;1.23;;
12348;SDS011;5974;42.710;27.258;2023-03-12T01:53:56;10.87;;;1.73;;
12348;SDS011;5974;42.710;27.258;2023-03-12T01:56:27;6.87;;;1.80;;
12348;SDS011;5974;42.710;27.258;2023-03-12T01:58:57;3.90;;;1.47;;
12348;SDS011;5974;42.710;27.258;2023-03-12T02:01:26;8.80;;;1.67;;
12348;SDS011;5974;42.710;27.258;2023-03-12T02:03:54;15.73;;;1.80;;
12348;SDS011;5974;42.710;27.258;2023-03-12T02:06:25;6.73;;;1.60;;
12348;SDS011;5974;42.710;27.258;2023-03-12T02:08:58;6.57;;;1.63;;
12348;SDS011;5974;42.710;27.258;2023-03-12T02:11:26;12.57;;;2.37;;
12348;SDS011;5974;42.710;27.258;2023-03-12T02:13:53;6.30;;;1.77;;
12348;SDS011;5974;42.710;27.258;2023-03-12T02:16:20;5.07;;;1.80;;
12348;SDS011;5974;42.710;27.258;2023-03-12T02:18:47;7.77;;;2.00;;
12348;SDS011;5974;42.710;27.258;2023-03-12T02:21:19;5.50;;;1.73;;
12348;SDS011;5974;42.710;27.258;2023-03-12T02:23:51;4.53;;;2.00;;
12348;SDS011;5974;42.710;27.258;2023-03-12T02:26:24;6.07;;;2.03;;
12348;SDS011;5974;42.710;27.258;2023-03-12T02:28:54;5.17;;;1.90;;
12348;SDS011;5974;42.710;27.258;2023-03-12T02:31:23;11.57;;;1.93;;
12348;SDS011;5974;42.710;27.258;2023-03-12T02:33:51;6.90;;;1.67;;
12348;SDS011;5974;42.710;27.258;2023-03-12T02:36:20;10.83;;;2.40;;
12348;SDS011;5974;42.710;27.258;2023-03-12T02:38:47;5.07;;;2.07;;
12348;SDS011;5974;42.710;27.258;2023-03-12T02:41:17;8.07;;;2.43;;
12348;SDS011;5974;42.710;27.258;2023-03-12T02:43:48;10.73;;;2.77;;
12348;SDS011;5974;42.710;27.258;2023-03-12T02:46:17;5.80;;;2.50;;
12348;SDS011;5974;42.710;27.258;2023-03-12T02:48:44;12.30;;;2.30;;
12348;SDS011;5974;42.710;27.258;2023-03-12T02:51:10;8.93;;;2.03;;
12348;SDS011;5974;42.710;27.258;2023-03-12T02:53:37;5.90;;;1.90;;
12348;SDS011;5974;42.710;27.258;2023-03-12T02:56:05;7.70;;;2.20;;
12348;SDS011;5974;42.710;27.258;2023-03-12T02:58:32;6.20;;;2.10;;
12348;SDS011;5974;42.710;27.258;2023-03-12T03:01:00;9.67;;;1.90;;
12348;SDS011;5974;42.710;27.258;2023-03-12T03:03:28;9.90;;;2.17;;
12348;SDS011;5974;42.710;27.258;2023-03-12T03:05:55;5.97;;;1.73;;
12348;SDS011;5974;42.710;27.258;2023-03-12T03:08:22;5.57;;;1.87;;
12348;SDS011;5974;42.710;27.258;2023-03-12T03:10:49;3.83;;;1.90;;
12348;SDS011;5974;42.710;27.258;2023-03-12T03:13:17;5.87;;;2.00;;
12348;SDS011;5974;42.710;27.258;2023-03-12T03:15:44;6.73;;;2.20;;
12348;SDS011;5974;42.710;27.258;2023-03-12T03:18:12;2.77;;;1.80;;
12348;SDS011;5974;42.710;27.258;2023-03-12T03:20:39;4.80;;;2.13;;
12348;SDS011;5974;42.710;27.258;2023-03-12T03:23:07;8.83;;;2.03;;
12348;SDS011;5974;42.710;27.258;2023-03-12T03:25:34;6.67;;;2.17;;
12348;SDS011;5974;42.710;27.258;2023-03-12T03:28:01;12.00;;;2.00;;
12348;SDS011;5974;42.710;27.258;2023-03-12T03:30:28;6.83;;;2.30;;
12348;SDS011;5974;42.710;27.258;2023-03-12T03:32:55;5.23;;;1.93;;
12348;SDS011;5974;42.710;27.258;2023-03-12T03:35:23;4.50;;;2.03;;
12348;SDS011;5974;42.710;27.258;2023-03-12T03:37:50;6.57;;;2.00;;
12348;SDS011;5974;42.710;27.258;2023-03-12T03:40:17;8.67;;;1.70;;
12348;SDS011;5974;42.710;27.258;2023-03-12T03:42:43;4.00;;;1.73;;
12348;SDS011;5974;42.710;27.258;2023-03-12T03:45:10;13.03;;;2.00;;
12348;SDS011;5974;42.710;27.258;2023-03-12T03:47:37;5.27;;;2.20;;
12348;SDS011;5974;42.710;27.258;2023-03-12T03:50:04;5.10;;;2.23;;
12348;SDS011;5974;42.710;27.258;2023-03-12T03:52:33;6.27;;;1.67;;
12348;SDS011;5974;42.710;27.258;2023-03-12T03:55:00;4.27;;;1.80;;
12348;SDS011;5974;42.710;27.258;2023-03-12T03:57:27;7.37;;;1.87;;
12348;SDS011;5974;42.710;27.258;2023-03-12T03:59:54;3.83;;;2.07;;
12348;SDS011;5974;42.710;27.258;2023-03-12T04:02:23;3.67;;;2.27;;
12348;SDS011;5974;42.710;27.258;2023-03-12T04:04:50;6.00;;;1.97;;
12348;SDS011;5974;42.710;27.258;2023-03-12T04:07:18;6.80;;;2.37;;
12348;SDS011;5974;42.710;27.258;2023-03-12T04:09:46;12.80;;;2.03;;
12348;SDS011;5974;42.710;27.258;2023-03-12T04:12:13;7.43;;;1.93;;
12348;SDS011;5974;42.710;27.258;2023-03-12T04:14:40;5.73;;;2.17;;
12348;SDS011;5974;42.710;27.258;2023-03-12T04:17:08;6.63;;;1.77;;
12348;SDS011;5974;42.710;27.258;2023-03-12T04:19:35;2.80;;;2.60;;
12348;SDS011;5974;42.710;27.258;2023-03-12T04:22:02;3.93;;;1.80;;
12348;SDS011;5974;42.710;27.258;2023-03-12T04:24:29;5.53;;;2.00;;
12348;SDS011;5974;42.710;27.258;2023-03-12T04:26:57;4.17;;;1.90;;
12348;SDS011;5974;42.710;27.258;2023-03-12T04:29:24;3.50;;;1.87;;
12348;SDS011;5974;42.710;27.258;2023-03-12T04:31:51;5.07;;;2.00;;
12348;SDS011;5974;42.710;27.258;2023-03-12T04:34:19;5.23;;;1.70;;
12348;SDS011;5974;42.710;27.258;2023-03-12T04:36:46;3.97;;;1.90;;
12348;SDS011;5974;42.710;27.258;2023-03-12T04:39:15;2.93;;;1.80;;
12348;SDS011;5974;42.710;27.258;2023-03-12T04:41:42;5.40;;;2.10;;
12348;SDS011;5974;42.710;27.258;2023-03-12T04:44:11;3.93;;;1.70;;
12348;SDS011;5974;42.710;27.258;2023-03-12T04:46:38;3.87;;;1.77;;
12348;SDS011;5974;42.710;27.258;2023-03-12T04:49:05;3.70;;;1.90;;
12348;SDS011;5974;42.710;27.258;2023-03-12T04:51:31;9.07;;;2.13;;
12348;SDS011;5974;42.710;27.258;2023-03-12T04:53:58;9.10;;;2.40;;
12348;SDS011;5974;42.710;27.258;2023-03-12T04:56:25;6.63;;;1.90;;
12348;SDS011;5974;42.710;27.258;2023-03-12T04:58:52;4.63;;;1.90;;
12348;SDS011;5974;42.710;27.258;2023-03-12T05:01:22;4.23;;;2.07;;
12348;SDS011;5974;42.710;27.258;2023-03-12T05:03:52;2.87;;;1.70;;
12348;SDS011;5974;42.710;27.258;2023-03-12T05:06:19;4.53;;;1.90;;
12348;SDS011;5974;42.710;27.258;2023-03-12T05:08:47;4.47;;;2.47;;
12348;SDS011;5974;42.710;27.258;2023-03-12T05:11:14;4.40;;;1.57;;
12348;SDS011;5974;42.710;27.258;2023-03-12T05:13:41;5.27;;;2.17;;
12348;SDS011;5974;42.710;27.258;2023-03-12T05:16:08;4.27;;;2.27;;
12348;SDS011;5974;42.710;27.258;2023-03-12T05:18:37;4.33;;;2.00;;
12348;SDS011;5974;42.710;27.258;2023-03-12T05:21:05;8.50;;;3.00;;
12348;SDS011;5974;42.710;27.258;2023-03-12T05:23:34;3.63;;;2.40;;
12348;SDS011;5974;42.710;27.258;2023-03-12T05:26:03;13.37;;;2.93;;
12348;SDS011;5974;42.710;27.258;2023-03-12T05:28:31;8.50;;;2.80;;
12348;SDS011;5974;42.710;27.258;2023-03-12T05:30:59;6.33;;;2.43;;
12348;SDS011;5974;42.710;27.258;2023-03-12T05:33:26;6.57;;;2.13;;
12348;SDS011;5974;42.710;27.258;2023-03-12T05:35:55;7.37;;;2.77;;
12348;SDS011;5974;42.710;27.258;2023-03-12T05:38:22;5.47;;;2.23;;
12348;SDS011;5974;42.710;27.258;2023-03-12T05:40:52;5.70;;;3.17;;
12348;SDS011;5974;42.710;27.258;2023-03-12T05:43:19;3.93;;;2.50;;
12348;SDS011;5974;42.710;27.258;2023-03-12T05:45:46;7.30;;;2.80;;
12348;SDS011;5974;42.710;27.258;2023-03-12T05:48:13;5.60;;;2.50;;
12348;SDS011;5974;42.710;27.258;2023-03-12T05:50:40;3.40;;;2.50;;
12348;SDS011;5974;42.710;27.258;2023-03-12T05:53:09;6.03;;;2.47;;
12348;SDS011;5974;42.710;27.258;2023-03-12T05:55:37;2.90;;;2.10;;
12348;SDS011;5974;42.710;27.258;2023-03-12T05:58:05;6.57;;;2.20;;
12348;SDS011;5974;42.710;27.258;2023-03-12T06:00:33;6.20;;;2.30;;
12348;SDS011;5974;42.710;27.258;2023-03-12T06:03:02;4.63;;;1.97;;
12348;SDS011;5974;42.710;27.258;2023-03-12T06:05:29;5.17;;;1.93;;
12348;SDS011;5974;42.710;27.258;2023-03-12T06:07:56;2.73;;;1.90;;
12348;SDS011;5974;42.710;27.258;2023-03-12T06:10:25;7.53;;;2.20;;
12348;SDS011;5974;42.710;27.258;2023-03-12T06:12:52;3.40;;;1.90;;
12348;SDS011;5974;42.710;27.258;2023-03-12T06:15:19;10.00;;;2.30;;
12348;SDS011;5974;42.710;27.258;2023-03-12T06:17:45;5.43;;;1.97;;
12348;SDS011;5974;42.710;27.258;2023-03-12T06:20:12;1.87;;;1.70;;
12348;SDS011;5974;42.710;27.258;2023-03-12T06:22:40;2.77;;;2.13;;
12348;SDS011;5974;42.710;27.258;2023-03-12T06:25:07;2.60;;;1.93;;
12348;SDS011;5974;42.710;27.258;2023-03-12T06:27:36;4.63;;;2.10;;
12348;SDS011;5974;42.710;27.258;2023-03-12T06:30:03;2.23;;;1.90;;
12348;SDS011;5974;42.710;27.258;2023-03-12T06:32:30;6.80;;;2.00;;
12348;SDS011;5974;42.710;27.258;2023-03-12T06:34:57;3.53;;;1.97;;
12348;SDS011;5974;42.710;27.258;2023-03-12T06:37:25;3.40;;;1.40;;
12348;SDS011;5974;42.710;27.258;2023-03-12T06:39:52;5.33;;;2.63;;
12348;SDS011;5974;42.710;27.258;2023-03-12T06:42:19;3.43;;;2.27;;
12348;SDS011;5974;42.710;27.258;2023-03-12T06:44:48;4.63;;;1.90;;
12348;SDS011;5974;42.710;27.258;2023-03-12T06:47:15;4.40;;;2.00;;
12348;SDS011;5974;42.710;27.258;2023-03-12T06:49:42;4.50;;;1.70;;
12348;SDS011;5974;42.710;27.258;2023-03-12T06:52:09;5.13;;;2.10;;
12348;SDS011;5974;42.710;27.258;2023-03-12T06:54:36;2.27;;;2.00;;
12348;SDS011;5974;42.710;27.258;2023-03-12T06:57:03;7.83;;;2.87;;
12348;SDS011;5974;42.710;27.258;2023-03-12T06:59:30;6.33;;;2.50;;
12348;SDS011;5974;42.710;27.258;2023-03-12T07:01:58;7.20;;;3.70;;
12348;SDS011;5974;42.710;27.258;2023-03-12T07:04:25;2.73;;;1.90;;
12348;SDS011;5974;42.710;27.258;2023-03-12T07:06:51;6.90;;;2.33;;
12348;SDS011;5974;42.710;27.258;2023-03-12T07:09:18;6.80;;;1.83;;
12348;SDS011;5974;42.710;27.258;2023-03-12T07:11:45;5.13;;;1.87;;
12348;SDS011;5974;42.710;27.258;2023-03-12T07:14:12;6.40;;;1.80;;
12348;SDS011;5974;42.710;27.258;2023-03-12T07:16:39;4.50;;;3.80;;
12348;SDS011;5974;42.710;27.258;2023-03-12T07:19:08;3.13;;;1.97;;
12348;SDS011;5974;42.710;27.258;2023-03-12T07:21:34;8.70;;;3.70;;
12348;SDS011;5974;42.710;27.258;2023-03-12T07:24:01;4.30;;;2.37;;
12348;SDS011;5974;42.710;27.258;2023-03-12T07:26:31;3.20;;;2.07;;
12348;SDS011;5974;42.710;27.258;2023-03-12T07:28:59;4.73;;;1.80;;
12348;SDS011;5974;42.710;27.258;2023-03-12T07:31:26;3.50;;;2.20;;
12348;SDS011;5974;42.710;27.258;2023-03-12T07:33:53;2.87;;;1.73;;
12348;SDS011;5974;42.710;27.258;2023-03-12T07:36:21;3.57;;;2.07;;
12348;SDS011;5974;42.710;27.258;2023-03-12T07:38:48;5.17;;;2.00;;
12348;SDS011;5974;42.710;27.258;2023-03-12T07:41:16;2.80;;;2.00;;
12348;SDS011;5974;42.710;27.258;2023-03-12T07:43:43;4.13;;;2.57;;
12348;SDS011;5974;42.710;27.258;2023-03-12T07:46:09;3.40;;;1.93;;
12348;SDS011;5974;42.710;27.258;2023-03-12T07:48:36;1.77;;;1.67;;
12348;SDS011;5974;42.710;27.258;2023-03-12T07:51:04;3.47;;;1.83;;
12348;SDS011;5974;42.710;27.258;2023-03-12T07:53:32;2.93;;;1.60;;
12348;SDS011;5974;42.710;27.258;2023-03-12T07:55:59;1.93;;;1.50;;
12348;SDS011;5974;42.710;27.258;2023-03-12T07:58:26;7.20;;;1.90;;
12348;SDS011;5974;42.710;27.258;2023-03-12T08:00:53;3.10;;;1.83;;
12348;SDS011;5974;42.710;27.258;2023-03-12T08:03:21;2.93;;;2.23;;
12348;SDS011;5974;42.710;27.258;2023-03-12T08:05:54;2.97;;;1.73;;
12348;SDS011;5974;42.710;27.258;2023-03-12T08:08:22;4.17;;;1.70;;
12348;SDS011;5974;42.710;27.258;2023-03-12T08:10:50;2.87;;;2.00;;
12348;SDS011;5974;42.710;27.258;2023-03-12T08:13:17;3.17;;;1.53;;
12348;SDS011;5974;42.710;27.258;2023-03-12T08:15:44;1.77;;;1.67;;
12348;SDS011;5974;42.710;27.258;2023-03-12T08:18:11;1.70;;;1.60;;
12348;SDS011;5974;42.710;27.258;2023-03-12T08:20:38;7.13;;;2.90;;
12348;SDS011;5974;42.710;27.258;2023-03-12T08:23:05;2.57;;;1.70;;
12348;SDS011;5974;42.710;27.258;2023-03-12T08:25:32;2.80;;;2.00;;
12348;SDS011;5974;42.710;27.258;2023-03-12T08:28:02;4.10;;;1.60;;
12348;SDS011;5974;42.710;27.258;2023-03-12T08:30:29;3.40;;;1.73;;
12348;SDS011;5974;42.710;27.258;2023-03-12T08:32:56;3.67;;;1.90;;
12348;SDS011;5974;42.710;27.258;2023-03-12T08:35:23;6.73;;;2.07;;
12348;SDS011;5974;42.710;27.258;2023-03-12T08:37:50;3.43;;;1.70;;
12348;SDS011;5974;42.710;27.258;2023-03-12T08:40:16;2.30;;;2.10;;
12348;SDS011;5974;42.710;27.258;2023-03-12T08:42:43;5.47;;;2.13;;
12348;SDS011;5974;42.710;27.258;2023-03-12T08:45:12;4.77;;;2.07;;
12348;SDS011;5974;42.710;27.258;2023-03-12T08:47:40;3.40;;;2.40;;
12348;SDS011;5974;42.710;27.258;2023-03-12T08:50:08;4.73;;;1.93;;
12348;SDS011;5974;42.710;27.258;2023-03-12T08:52:36;2.80;;;1.57;;
12348;SDS011;5974;42.710;27.258;2023-03-12T08:55:04;3.60;;;1.60;;
12348;SDS011;5974;42.710;27.258;2023-03-12T08:57:31;4.93;;;1.60;;
12348;SDS011;5974;42.710;27.258;2023-03-12T08:59:58;2.37;;;1.70;;
12348;SDS011;5974;42.710;27.258;2023-03-12T09:02:26;3.23;;;1.70;;
12348;SDS011;5974;42.710;27.258;2023-03-12T09:04:53;3.13;;;1.40;;
12348;SDS011;5974;42.710;27.258;2023-03-12T09:07:20;1.80;;;1.50;;
12348;SDS011;5974;42.710;27.258;2023-03-12T09:09:47;8.50;;;1.77;;
12348;SDS011;5974;42.710;27.258;2023-03-12T09:12:14;1.77;;;1.60;;
12348;SDS011;5974;42.710;27.258;2023-03-12T09:14:41;2.30;;;1.73;;
12348;SDS011;5974;42.710;27.258;2023-03-12T09:17:07;6.30;;;1.50;;
12348;SDS011;5974;42.710;27.258;2023-03-12T09:19:36;1.90;;;1.67;;
12348;SDS011;5974;42.710;27.258;2023-03-12T09:22:04;4.60;;;1.90;;
12348;SDS011;5974;42.710;27.258;2023-03-12T09:24:31;4.93;;;2.10;;
12348;SDS011;5974;42.710;27.258;2023-03-12T09:26:58;2.40;;;1.60;;
12348;SDS011;5974;42.710;27.258;2023-03-12T09:29:25;4.20;;;1.40;;
12348;SDS011;5974;42.710;27.258;2023-03-12T09:31:51;2.97;;;1.50;;
12348;SDS011;5974;42.710;27.258;2023-03-12T09:34:18;2.47;;;1.53;;
12348;SDS011;5974;42.710;27.258;2023-03-12T09:36:47;1.73;;;1.40;;
12348;SDS011;5974;42.710;27.258;2023-03-12T09:39:14;2.37;;;1.50;;
12348;SDS011;5974;42.710;27.258;2023-03-12T09:41:40;4.23;;;1.73;;
12348;SDS011;5974;42.710;27.258;2023-03-12T09:44:12;2.27;;;1.27;;
12348;SDS011;5974;42.710;27.258;2023-03-12T09:46:45;2.10;;;1.40;;
12348;SDS011;5974;42.710;27.258;2023-03-12T09:49:15;1.83;;;1.40;;
12348;SDS011;5974;42.710;27.258;2023-03-12T09:51:49;4.70;;;1.53;;
12348;SDS011;5974;42.710;27.258;2023-03-12T09:54:22;4.13;;;2.10;;
12348;SDS011;5974;42.710;27.258;2023-03-12T09:56:53;7.30;;;1.60;;
12348;SDS011;5974;42.710;27.258;2023-03-12T09:59:25;3.57;;;2.07;;
12348;SDS011;5974;42.710;27.258;2023-03-12T10:01:52;4.57;;;1.40;;
12348;SDS011;5974;42.710;27.258;2023-03-12T10:04:31;2.23;;;1.77;;
12348;SDS011;5974;42.710;27.258;2023-03-12T10:07:08;2.17;;;1.70;;
12348;SDS011;5974;42.710;27.258;2023-03-12T10:09:44;4.40;;;1.73;;
12348;SDS011;5974;42.710;27.258;2023-03-12T10:12:33;2.20;;;1.53;;
12348;SDS011;5974;42.710;27.258;2023-03-12T10:15:14;4.47;;;1.33;;
12348;SDS011;5974;42.710;27.258;2023-03-12T10:17:52;2.20;;;1.57;;
12348;SDS011;5974;42.710;27.258;2023-03-12T10:23:40;2.27;;;1.50;;
12348;SDS011;5974;42.710;27.258;2023-03-12T10:26:16;1.83;;;1.70;;
12348;SDS011;5974;42.710;27.258;2023-03-12T10:28:48;5.77;;;1.30;;
12348;SDS011;5974;42.710;27.258;2023-03-12T10:31:17;2.77;;;1.20;;
12348;SDS011;5974;42.710;27.258;2023-03-12T10:33:49;2.37;;;1.43;;
12348;SDS011;5974;42.710;27.258;2023-03-12T10:36:20;2.33;;;1.77;;
12348;SDS011;5974;42.710;27.258;2023-03-12T10:38:52;3.33;;;1.70;;
12348;SDS011;5974;42.710;27.258;2023-03-12T10:41:19;5.47;;;1.50;;
12348;SDS011;5974;42.710;27.258;2023-03-12T10:43:47;4.37;;;1.27;;
12348;SDS011;5974;42.710;27.258;2023-03-12T10:46:24;1.70;;;1.53;;
12348;SDS011;5974;42.710;27.258;2023-03-12T10:49:21;2.83;;;1.60;;
12348;SDS011;5974;42.710;27.258;2023-03-12T10:52:00;1.10;;;1.10;;
12348;SDS011;5974;42.710;27.258;2023-03-12T10:54:31;4.87;;;1.40;;
12348;SDS011;5974;42.710;27.258;2023-03-12T10:57:00;1.83;;;1.60;;
12348;SDS011;5974;42.710;27.258;2023-03-12T10:59:29;3.47;;;1.73;;
12348;SDS011;5974;42.710;27.258;2023-03-12T11:01:58;1.50;;;1.40;;
12348;SDS011;5974;42.710;27.258;2023-03-12T11:04:26;3.97;;;1.50;;
12348;SDS011;5974;42.710;27.258;2023-03-12T11:09:51;4.30;;;1.53;;
12348;SDS011;5974;42.710;27.258;2023-03-12T11:12:38;2.57;;;1.50;;
12348;SDS011;5974;42.710;27.258;2023-03-12T11:15:17;1.60;;;1.50;;
12348;SDS011;5974;42.710;27.258;2023-03-12T11:17:45;1.90;;;1.80;;
12348;SDS011;5974;42.710;27.258;2023-03-12T11:20:25;2.23;;;1.50;;
12348;SDS011;5974;42.710;27.258;2023-03-12T11:22:53;3.33;;;1.63;;
12348;SDS011;5974;42.710;27.258;2023-03-12T11:25:22;1.80;;;1.70;;
12348;SDS011;5974;42.710;27.258;2023-03-12T11:27:51;1.80;;;1.70;;
12348;SDS011;5974;42.710;27.258;2023-03-12T11:30:21;2.23;;;1.40;;
12348;SDS011;5974;42.710;27.258;2023-03-12T11:32:51;2.63;;;1.70;;
12348;SDS011;5974;42.710;27.258;2023-03-12T11:35:20;2.20;;;1.80;;
12348;SDS011;5974;42.710;27.258;2023-03-12T11:37:58;1.77;;;1.67;;
12348;SDS011;5974;42.710;27.258;2023-03-12T11:40:42;1.70;;;1.60;;
12348;SDS011;5974;42.710;27.258;2023-03-12T11:43:22;3.77;;;1.73;;
12348;SDS011;5974;42.710;27.258;2023-03-12T11:46:02;2.80;;;1.47;;
12348;SDS011;5974;42.710;27.258;2023-03-12T11:48:39;6.43;;;1.90;;
12348;SDS011;5974;42.710;27.258;2023-03-12T11:51:18;2.83;;;1.47;;
12348;SDS011;5974;42.710;27.258;2023-03-12T11:53:58;1.97;;;1.80;;
12348;SDS011;5974;42.710;27.258;2023-03-12T11:56:39;1.80;;;1.50;;
12348;SDS011;5974;42.710;27.258;2023-03-12T11:59:13;3.50;;;1.90;;
12348;SDS011;5974;42.710;27.258;2023-03-12T12:02:11;1.70;;;1.60;;
12348;SDS011;5974;42.710;27.258;2023-03-12T12:10:37;2.33;;;1.70;;
12348;SDS011;5974;42.710;27.258;2023-03-12T12:13:14;1.90;;;1.80;;
12348;SDS011;5974;42.710;27.258;2023-03-12T12:15:52;2.77;;;1.90;;
12348;SDS011;5974;42.710;27.258;2023-03-12T12:18:31;2.93;;;2.03;;
12348;SDS011;5974;42.710;27.258;2023-03-12T12:21:13;3.97;;;1.80;;
12348;SDS011;5974;42.710;27.258;2023-03-12T12:23:51;3.50;;;1.80;;
12348;SDS011;5974;42.710;27.258;2023-03-12T12:26:27;4.50;;;1.60;;
12348;SDS011;5974;42.710;27.258;2023-03-12T12:29:08;3.87;;;2.17;;
12348;SDS011;5974;42.710;27.258;2023-03-12T12:31:47;4.67;;;2.30;;
12348;SDS011;5974;42.710;27.258;2023-03-12T12:34:37;1.87;;;1.77;;
12348;SDS011;5974;42.710;27.258;2023-03-12T12:37:22;2.53;;;2.00;;
12348;SDS011;5974;42.710;27.258;2023-03-12T12:39:58;4.53;;;2.10;;
12348;SDS011;5974;42.710;27.258;2023-03-12T12:42:34;3.83;;;1.80;;
12348;SDS011;5974;42.710;27.258;2023-03-12T12:45:11;2.37;;;1.67;;
12348;SDS011;5974;42.710;27.258;2023-03-12T12:47:41;2.00;;;1.70;;
12348;SDS011;5974;42.710;27.258;2023-03-12T12:50:14;1.70;;;1.60;;
12348;SDS011;5974;42.710;27.258;2023-03-12T12:52:45;2.60;;;1.97;;
12348;SDS011;5974;42.710;27.258;2023-03-12T12:55:19;4.67;;;2.13;;
12348;SDS011;5974;42.710;27.258;2023-03-12T12:57:51;3.80;;;1.90;;
12348;SDS011;5974;42.710;27.258;2023-03-12T13:03:13;2.13;;;1.93;;
12348;SDS011;5974;42.710;27.258;2023-03-12T13:05:44;1.97;;;1.83;;
12348;SDS011;5974;42.710;27.258;2023-03-12T13:08:31;3.20;;;2.03;;
12348;SDS011;5974;42.710;27.258;2023-03-12T13:11:24;3.53;;;1.93;;
12348;SDS011;5974;42.710;27.258;2023-03-12T13:14:14;2.20;;;2.00;;
12348;SDS011;5974;42.710;27.258;2023-03-12T13:19:59;1.80;;;1.70;;
12348;SDS011;5974;42.710;27.258;2023-03-12T13:22:53;1.73;;;1.50;;
12348;SDS011;5974;42.710;27.258;2023-03-12T13:25:30;1.97;;;1.83;;
12348;SDS011;5974;42.710;27.258;2023-03-12T13:28:25;2.90;;;1.80;;
12348;SDS011;5974;42.710;27.258;2023-03-12T13:30:56;3.07;;;1.90;;
12348;SDS011;5974;42.710;27.258;2023-03-12T13:33:37;2.77;;;1.90;;
12348;SDS011;5974;42.710;27.258;2023-03-12T13:36:09;3.20;;;1.80;;
12348;SDS011;5974;42.710;27.258;2023-03-12T13:38:52;4.93;;;1.70;;
12348;SDS011;5974;42.710;27.258;2023-03-12T13:41:31;1.60;;;1.50;;
12348;SDS011;5974;42.710;27.258;2023-03-12T13:44:07;4.07;;;2.00;;
12348;SDS011;5974;42.710;27.258;2023-03-12T13:46:57;1.50;;;1.40;;
12348;SDS011;5974;42.710;27.258;2023-03-12T13:49:27;2.80;;;1.53;;
12348;SDS011;5974;42.710;27.258;2023-03-12T13:52:07;4.90;;;2.77;;
12348;SDS011;5974;42.710;27.258;2023-03-12T13:54:44;6.93;;;3.10;;
12348;SDS011;5974;42.710;27.258;2023-03-12T13:57:20;1.87;;;1.70;;
12348;SDS011;5974;42.710;27.258;2023-03-12T13:59:54;2.47;;;1.80;;
12348;SDS011;5974;42.710;27.258;2023-03-12T14:02:24;4.60;;;2.27;;
12348;SDS011;5974;42.710;27.258;2023-03-12T14:04:56;6.03;;;2.83;;
12348;SDS011;5974;42.710;27.258;2023-03-12T14:07:33;3.47;;;2.17;;
12348;SDS011;5974;42.710;27.258;2023-03-12T14:10:21;2.27;;;2.07;;
12348;SDS011;5974;42.710;27.258;2023-03-12T14:12:57;4.13;;;1.87;;
12348;SDS011;5974;42.710;27.258;2023-03-12T14:15:34;5.00;;;2.33;;
12348;SDS011;5974;42.710;27.258;2023-03-12T14:18:10;6.53;;;2.10;;
12348;SDS011;5974;42.710;27.258;2023-03-12T14:20:42;1.37;;;1.37;;
12348;SDS011;5974;42.710;27.258;2023-03-12T14:23:17;1.97;;;1.77;;
12348;SDS011;5974;42.710;27.258;2023-03-12T14:25:46;2.27;;;1.87;;
12348;SDS011;5974;42.710;27.258;2023-03-12T14:28:15;2.50;;;1.77;;
12348;SDS011;5974;42.710;27.258;2023-03-12T14:30:47;1.67;;;1.57;;
12348;SDS011;5974;42.710;27.258;2023-03-12T14:33:18;3.10;;;1.80;;
12348;SDS011;5974;42.710;27.258;2023-03-12T14:35:50;2.03;;;1.83;;
12348;SDS011;5974;42.710;27.258;2023-03-12T14:38:23;1.80;;;1.70;;
12348;SDS011;5974;42.710;27.258;2023-03-12T14:40:56;2.53;;;1.70;;
12348;SDS011;5974;42.710;27.258;2023-03-12T14:43:29;2.00;;;1.90;;
12348;SDS011;5974;42.710;27.258;2023-03-12T14:45:58;4.40;;;1.80;;
12348;SDS011;5974;42.710;27.258;2023-03-12T14:48:27;3.20;;;1.70;;
12348;SDS011;5974;42.710;27.258;2023-03-12T14:50:56;2.37;;;2.13;;
12348;SDS011;5974;42.710;27.258;2023-03-12T14:53:25;3.70;;;1.77;;
12348;SDS011;5974;42.710;27.258;2023-03-12T14:55:57;1.80;;;1.70;;
12348;SDS011;5974;42.710;27.258;2023-03-12T14:58:28;3.57;;;2.00;;
12348;SDS011;5974;42.710;27.258;2023-03-12T15:00:57;3.83;;;1.90;;
12348;SDS011;5974;42.710;27.258;2023-03-12T15:03:25;2.90;;;1.90;;
12348;SDS011;5974;42.710;27.258;2023-03-12T15:05:53;3.40;;;2.00;;
12348;SDS011;5974;42.710;27.258;2023-03-12T15:08:22;3.27;;;2.07;;
12348;SDS011;5974;42.710;27.258;2023-03-12T15:10:51;2.30;;;1.57;;
12348;SDS011;5974;42.710;27.258;2023-03-12T15:13:19;2.13;;;1.93;;
12348;SDS011;5974;42.710;27.258;2023-03-12T15:15:49;2.20;;;2.00;;
12348;SDS011;5974;42.710;27.258;2023-03-12T15:18:20;2.73;;;2.30;;
12348;SDS011;5974;42.710;27.258;2023-03-12T15:20:50;4.13;;;3.73;;
12348;SDS011;5974;42.710;27.258;2023-03-12T15:23:20;7.67;;;6.13;;